Portada
METAR-TAF:

METAR-TAF

Aeroports :

Millington, Tennessee, Estats Units d'Amèrica

latitud: 35-21-24N, longitud: 089-52-13W, altitud: 98 m

Observació

L'informe es va fer fa 58 minuts, a les 09:55 UTC
Vent 4 kt del Sud/Sud-Oest
Temperatura 24°C
Humitat 74%
Pressió 1011 hPa
Visibilitat: 16.1 km
Cel ennuvolat a una alçada de 7000 ft
Cel ennuvolat a una alçada de 7500 ft

METAR: KNQA 220955Z AUTO 21004KT 10SM BKN070 BKN075 24/19 A2986 RMK A01

Hora: 05:53 (10:53 UTC)


TAF: manca

Observacions i pronòstics meteorològics de més de 4000 aeroports (METAR i TAF).

Les estacions disponibles són els punts grocs i vermells al mapa.

Posi el ratolí al punt desitjat per veure el nom de l'estació.

Feu clic per veure les observacions i els pronòstics meteorològics.

Per canviar el mapa: feu clic els botons verds amb una creu de color negre per apropar; al botó verd amb un guió per allunyar la imatge; o en les fletxes verdes per a mapes adjacents.


METAR-TAF: